sensor_id;sensor_type;location;lat;lon;timestamp;temperature;humidity
74416;SHT31;62850;42.428;25.618;2023-08-21T00:00:04;27.97;34.97
74416;SHT31;62850;42.428;25.618;2023-08-21T00:02:31;28.04;34.83
74416;SHT31;62850;42.428;25.618;2023-08-21T00:04:57;28.08;34.66
74416;SHT31;62850;42.428;25.618;2023-08-21T00:07:25;28.13;34.59
74416;SHT31;62850;42.428;25.618;2023-08-21T00:09:53;28.14;34.41
74416;SHT31;62850;42.428;25.618;2023-08-21T00:12:21;28.16;34.30
74416;SHT31;62850;42.428;25.618;2023-08-21T00:14:51;28.22;34.25
74416;SHT31;62850;42.428;25.618;2023-08-21T00:17:17;28.21;34.25
74416;SHT31;62850;42.428;25.618;2023-08-21T00:19:44;28.20;34.18
74416;SHT31;62850;42.428;25.618;2023-08-21T00:22:11;28.21;34.12
74416;SHT31;62850;42.428;25.618;2023-08-21T00:24:37;28.22;34.18
74416;SHT31;62850;42.428;25.618;2023-08-21T00:27:05;28.25;34.08
74416;SHT31;62850;42.428;25.618;2023-08-21T00:29:31;28.25;34.08
74416;SHT31;62850;42.428;25.618;2023-08-21T00:31:58;28.29;34.14
74416;SHT31;62850;42.428;25.618;2023-08-21T00:34:25;28.28;34.28
74416;SHT31;62850;42.428;25.618;2023-08-21T00:36:54;28.28;34.36
74416;SHT31;62850;42.428;25.618;2023-08-21T00:39:22;28.27;34.51
74416;SHT31;62850;42.428;25.618;2023-08-21T00:41:49;28.21;34.68
74416;SHT31;62850;42.428;25.618;2023-08-21T00:44:19;28.21;34.79
74416;SHT31;62850;42.428;25.618;2023-08-21T00:46:46;28.28;34.90
74416;SHT31;62850;42.428;25.618;2023-08-21T00:49:13;28.20;35.31
74416;SHT31;62850;42.428;25.618;2023-08-21T00:51:40;28.16;35.41
74416;SHT31;62850;42.428;25.618;2023-08-21T00:54:08;28.10;35.64
74416;SHT31;62850;42.428;25.618;2023-08-21T00:56:37;28.04;35.84
74416;SHT31;62850;42.428;25.618;2023-08-21T00:59:12;28.01;35.78
74416;SHT31;62850;42.428;25.618;2023-08-21T01:01:40;28.10;35.73
74416;SHT31;62850;42.428;25.618;2023-08-21T01:04:08;28.06;35.73
74416;SHT31;62850;42.428;25.618;2023-08-21T01:06:35;28.04;35.66
74416;SHT31;62850;42.428;25.618;2023-08-21T01:09:29;28.00;35.75
74416;SHT31;62850;42.428;25.618;2023-08-21T01:12:25;28.04;35.70
74416;SHT31;62850;42.428;25.618;2023-08-21T01:15:02;28.06;35.60
74416;SHT31;62850;42.428;25.618;2023-08-21T01:17:30;28.03;35.60
74416;SHT31;62850;42.428;25.618;2023-08-21T01:19:59;28.08;35.44
74416;SHT31;62850;42.428;25.618;2023-08-21T01:22:29;28.06;35.36
74416;SHT31;62850;42.428;25.618;2023-08-21T01:25:02;28.07;35.34
74416;SHT31;62850;42.428;25.618;2023-08-21T01:27:29;28.13;35.29
74416;SHT31;62850;42.428;25.618;2023-08-21T01:29:56;28.11;35.21
74416;SHT31;62850;42.428;25.618;2023-08-21T01:35:12;28.06;35.23
74416;SHT31;62850;42.428;25.618;2023-08-21T01:37:40;28.11;35.08
74416;SHT31;62850;42.428;25.618;2023-08-21T01:40:09;28.06;35.22
74416;SHT31;62850;42.428;25.618;2023-08-21T01:42:38;28.06;35.16
74416;SHT31;62850;42.428;25.618;2023-08-21T01:45:07;28.01;35.27
74416;SHT31;62850;42.428;25.618;2023-08-21T01:47:35;28.00;35.29
74416;SHT31;62850;42.428;25.618;2023-08-21T01:50:03;27.93;35.39
74416;SHT31;62850;42.428;25.618;2023-08-21T01:52:30;27.90;35.43
74416;SHT31;62850;42.428;25.618;2023-08-21T01:54:56;27.92;35.41
74416;SHT31;62850;42.428;25.618;2023-08-21T01:57:25;27.89;35.49
74416;SHT31;62850;42.428;25.618;2023-08-21T01:59:52;27.92;35.36
74416;SHT31;62850;42.428;25.618;2023-08-21T02:02:21;27.90;35.32
74416;SHT31;62850;42.428;25.618;2023-08-21T02:04:47;27.92;35.23
74416;SHT31;62850;42.428;25.618;2023-08-21T02:07:14;27.99;35.20
74416;SHT31;62850;42.428;25.618;2023-08-21T02:09:41;27.97;35.16
74416;SHT31;62850;42.428;25.618;2023-08-21T02:12:08;27.99;35.15
74416;SHT31;62850;42.428;25.618;2023-08-21T02:14:36;27.99;35.11
74416;SHT31;62850;42.428;25.618;2023-08-21T02:17:05;27.99;35.12
74416;SHT31;62850;42.428;25.618;2023-08-21T02:19:32;28.01;35.12
74416;SHT31;62850;42.428;25.618;2023-08-21T02:22:00;27.99;35.18
74416;SHT31;62850;42.428;25.618;2023-08-21T02:24:26;27.96;35.25
74416;SHT31;62850;42.428;25.618;2023-08-21T02:26:54;27.93;35.33
74416;SHT31;62850;42.428;25.618;2023-08-21T02:29:22;27.87;35.42
74416;SHT31;62850;42.428;25.618;2023-08-21T02:31:49;27.89;35.45
74416;SHT31;62850;42.428;25.618;2023-08-21T02:34:16;27.93;35.44
74416;SHT31;62850;42.428;25.618;2023-08-21T02:36:43;27.87;35.54
74416;SHT31;62850;42.428;25.618;2023-08-21T02:39:10;27.93;35.52
74416;SHT31;62850;42.428;25.618;2023-08-21T02:41:37;27.92;35.54
74416;SHT31;62850;42.428;25.618;2023-08-21T02:44:05;27.94;35.53
74416;SHT31;62850;42.428;25.618;2023-08-21T02:46:32;27.92;35.66
74416;SHT31;62850;42.428;25.618;2023-08-21T02:49:03;27.87;35.69
74416;SHT31;62850;42.428;25.618;2023-08-21T02:51:30;27.92;35.64
74416;SHT31;62850;42.428;25.618;2023-08-21T02:53:57;27.89;35.70
74416;SHT31;62850;42.428;25.618;2023-08-21T02:56:25;27.85;35.86
74416;SHT31;62850;42.428;25.618;2023-08-21T02:58:51;27.78;35.95
74416;SHT31;62850;42.428;25.618;2023-08-21T03:01:20;27.82;35.99
74416;SHT31;62850;42.428;25.618;2023-08-21T03:03:49;27.79;36.05
74416;SHT31;62850;42.428;25.618;2023-08-21T03:06:17;27.82;36.11
74416;SHT31;62850;42.428;25.618;2023-08-21T03:08:44;27.80;36.05
74416;SHT31;62850;42.428;25.618;2023-08-21T03:11:10;27.74;36.20
74416;SHT31;62850;42.428;25.618;2023-08-21T03:13:38;27.74;36.21
74416;SHT31;62850;42.428;25.618;2023-08-21T03:16:05;27.74;36.30
74416;SHT31;62850;42.428;25.618;2023-08-21T03:18:57;27.80;36.19
74416;SHT31;62850;42.428;25.618;2023-08-21T03:21:25;27.80;36.27
74416;SHT31;62850;42.428;25.618;2023-08-21T03:23:55;27.79;36.33
74416;SHT31;62850;42.428;25.618;2023-08-21T03:26:24;27.78;36.43
74416;SHT31;62850;42.428;25.618;2023-08-21T03:28:52;27.71;36.55
74416;SHT31;62850;42.428;25.618;2023-08-21T03:31:19;27.63;36.77
74416;SHT31;62850;42.428;25.618;2023-08-21T03:33:47;27.60;36.94
74416;SHT31;62850;42.428;25.618;2023-08-21T03:36:14;27.63;36.90
74416;SHT31;62850;42.428;25.618;2023-08-21T03:38:41;27.58;37.16
74416;SHT31;62850;42.428;25.618;2023-08-21T03:41:09;27.59;37.24
74416;SHT31;62850;42.428;25.618;2023-08-21T03:43:37;27.53;37.39
74416;SHT31;62850;42.428;25.618;2023-08-21T03:46:04;27.59;37.27
74416;SHT31;62850;42.428;25.618;2023-08-21T03:48:32;27.62;37.43
74416;SHT31;62850;42.428;25.618;2023-08-21T03:51:00;27.62;37.39
74416;SHT31;62850;42.428;25.618;2023-08-21T03:53:27;27.59;37.46
74416;SHT31;62850;42.428;25.618;2023-08-21T03:55:54;27.67;37.41
74416;SHT31;62850;42.428;25.618;2023-08-21T03:58:23;27.67;37.33
74416;SHT31;62850;42.428;25.618;2023-08-21T04:00:55;27.78;37.12
74416;SHT31;62850;42.428;25.618;2023-08-21T04:03:23;27.79;37.05
74416;SHT31;62850;42.428;25.618;2023-08-21T04:05:53;27.82;36.92
74416;SHT31;62850;42.428;25.618;2023-08-21T04:08:20;27.86;37.04
74416;SHT31;62850;42.428;25.618;2023-08-21T04:10:47;27.86;36.95
74416;SHT31;62850;42.428;25.618;2023-08-21T04:13:16;27.89;36.81
74416;SHT31;62850;42.428;25.618;2023-08-21T04:15:46;27.93;36.92
74416;SHT31;62850;42.428;25.618;2023-08-21T04:18:13;27.93;37.03
74416;SHT31;62850;42.428;25.618;2023-08-21T04:20:40;27.92;37.16
74416;SHT31;62850;42.428;25.618;2023-08-21T04:23:08;27.90;37.20
74416;SHT31;62850;42.428;25.618;2023-08-21T04:25:36;27.94;37.18
74416;SHT31;62850;42.428;25.618;2023-08-21T04:28:04;27.96;37.15
74416;SHT31;62850;42.428;25.618;2023-08-21T04:30:31;28.00;37.08
74416;SHT31;62850;42.428;25.618;2023-08-21T04:32:57;27.99;37.13
74416;SHT31;62850;42.428;25.618;2023-08-21T04:35:26;28.07;37.12
74416;SHT31;62850;42.428;25.618;2023-08-21T04:37:55;28.13;37.03
74416;SHT31;62850;42.428;25.618;2023-08-21T04:40:25;28.16;37.06
74416;SHT31;62850;42.428;25.618;2023-08-21T04:42:55;28.11;37.21
74416;SHT31;62850;42.428;25.618;2023-08-21T04:45:23;28.17;36.87
74416;SHT31;62850;42.428;25.618;2023-08-21T04:47:53;28.20;36.95
74416;SHT31;62850;42.428;25.618;2023-08-21T04:50:21;28.22;37.08
74416;SHT31;62850;42.428;25.618;2023-08-21T04:52:47;28.22;37.18
74416;SHT31;62850;42.428;25.618;2023-08-21T04:55:16;28.27;37.28
74416;SHT31;62850;42.428;25.618;2023-08-21T04:57:42;28.38;36.90
74416;SHT31;62850;42.428;25.618;2023-08-21T05:00:10;28.44;36.84
74416;SHT31;62850;42.428;25.618;2023-08-21T05:02:38;28.49;36.84
74416;SHT31;62850;42.428;25.618;2023-08-21T05:05:06;28.49;36.87
74416;SHT31;62850;42.428;25.618;2023-08-21T05:07:36;28.55;36.88
74416;SHT31;62850;42.428;25.618;2023-08-21T05:10:04;28.58;36.88
74416;SHT31;62850;42.428;25.618;2023-08-21T05:12:30;28.71;36.74
74416;SHT31;62850;42.428;25.618;2023-08-21T05:14:57;28.74;36.63
74416;SHT31;62850;42.428;25.618;2023-08-21T05:17:24;28.76;36.60
74416;SHT31;62850;42.428;25.618;2023-08-21T05:19:54;28.83;36.64
74416;SHT31;62850;42.428;25.618;2023-08-21T05:22:24;28.82;36.69
74416;SHT31;62850;42.428;25.618;2023-08-21T05:24:52;28.88;36.66
74416;SHT31;62850;42.428;25.618;2023-08-21T05:27:20;28.95;36.55
74416;SHT31;62850;42.428;25.618;2023-08-21T05:29:47;29.00;36.62
74416;SHT31;62850;42.428;25.618;2023-08-21T05:32:16;28.94;36.92
74416;SHT31;62850;42.428;25.618;2023-08-21T05:34:42;29.00;36.75
74416;SHT31;62850;42.428;25.618;2023-08-21T05:37:09;29.03;36.73
74416;SHT31;62850;42.428;25.618;2023-08-21T05:39:36;28.99;36.83
74416;SHT31;62850;42.428;25.618;2023-08-21T05:42:04;28.99;37.03
74416;SHT31;62850;42.428;25.618;2023-08-21T05:44:31;29.07;37.02
74416;SHT31;62850;42.428;25.618;2023-08-21T05:46:59;29.17;37.05
74416;SHT31;62850;42.428;25.618;2023-08-21T05:49:29;29.19;36.96
74416;SHT31;62850;42.428;25.618;2023-08-21T05:51:56;29.23;36.93
74416;SHT31;62850;42.428;25.618;2023-08-21T05:54:25;29.29;37.03
74416;SHT31;62850;42.428;25.618;2023-08-21T05:56:52;29.38;37.03
74416;SHT31;62850;42.428;25.618;2023-08-21T05:59:31;29.50;37.01
74416;SHT31;62850;42.428;25.618;2023-08-21T06:01:59;29.63;36.98
74416;SHT31;62850;42.428;25.618;2023-08-21T06:04:27;29.71;36.95
74416;SHT31;62850;42.428;25.618;2023-08-21T06:06:55;29.80;36.94
74416;SHT31;62850;42.428;25.618;2023-08-21T06:09:23;29.88;36.94
74416;SHT31;62850;42.428;25.618;2023-08-21T06:11:50;30.05;36.81
74416;SHT31;62850;42.428;25.618;2023-08-21T06:14:18;30.14;36.69
74416;SHT31;62850;42.428;25.618;2023-08-21T06:16:45;30.32;36.35
74416;SHT31;62850;42.428;25.618;2023-08-21T06:19:13;30.42;36.19
74416;SHT31;62850;42.428;25.618;2023-08-21T06:21:41;30.49;35.94
74416;SHT31;62850;42.428;25.618;2023-08-21T06:24:08;30.53;35.92
74416;SHT31;62850;42.428;25.618;2023-08-21T06:26:34;30.67;35.55
74416;SHT31;62850;42.428;25.618;2023-08-21T06:29:00;30.72;35.40
74416;SHT31;62850;42.428;25.618;2023-08-21T06:31:27;30.83;35.40
74416;SHT31;62850;42.428;25.618;2023-08-21T06:33:54;30.90;35.36
74416;SHT31;62850;42.428;25.618;2023-08-21T06:36:22;30.93;35.08
74416;SHT31;62850;42.428;25.618;2023-08-21T06:38:49;30.94;35.21
74416;SHT31;62850;42.428;25.618;2023-08-21T06:41:17;30.97;35.08
74416;SHT31;62850;42.428;25.618;2023-08-21T06:43:54;30.94;34.96
74416;SHT31;62850;42.428;25.618;2023-08-21T06:46:20;30.98;35.07
74416;SHT31;62850;42.428;25.618;2023-08-21T06:48:50;31.10;35.01
74416;SHT31;62850;42.428;25.618;2023-08-21T06:51:25;31.10;34.87
74416;SHT31;62850;42.428;25.618;2023-08-21T06:53:52;31.17;34.72
74416;SHT31;62850;42.428;25.618;2023-08-21T06:56:19;31.21;34.67
74416;SHT31;62850;42.428;25.618;2023-08-21T06:58:46;31.20;34.64
74416;SHT31;62850;42.428;25.618;2023-08-21T07:01:19;31.24;34.66
74416;SHT31;62850;42.428;25.618;2023-08-21T07:03:46;31.35;34.54
74416;SHT31;62850;42.428;25.618;2023-08-21T07:06:14;31.41;33.91
74416;SHT31;62850;42.428;25.618;2023-08-21T07:08:51;31.48;34.30
74416;SHT31;62850;42.428;25.618;2023-08-21T07:11:17;31.59;34.31
74416;SHT31;62850;42.428;25.618;2023-08-21T07:13:45;31.73;33.99
74416;SHT31;62850;42.428;25.618;2023-08-21T07:16:12;31.82;33.67
74416;SHT31;62850;42.428;25.618;2023-08-21T07:18:39;31.88;33.44
74416;SHT31;62850;42.428;25.618;2023-08-21T07:21:06;32.03;33.32
74416;SHT31;62850;42.428;25.618;2023-08-21T07:23:33;32.09;32.73
74416;SHT31;62850;42.428;25.618;2023-08-21T07:26:01;32.30;32.68
74416;SHT31;62850;42.428;25.618;2023-08-21T07:28:30;32.47;32.21
74416;SHT31;62850;42.428;25.618;2023-08-21T07:30:57;32.72;31.83
74416;SHT31;62850;42.428;25.618;2023-08-21T07:33:26;32.82;31.74
74416;SHT31;62850;42.428;25.618;2023-08-21T07:36:04;33.04;31.28
74416;SHT31;62850;42.428;25.618;2023-08-21T07:38:31;33.14;31.09
74416;SHT31;62850;42.428;25.618;2023-08-21T07:41:04;33.52;30.70
74416;SHT31;62850;42.428;25.618;2023-08-21T07:43:31;33.78;29.92
74416;SHT31;62850;42.428;25.618;2023-08-21T07:46:09;33.84;29.48
74416;SHT31;62850;42.428;25.618;2023-08-21T07:48:37;34.21;29.13
74416;SHT31;62850;42.428;25.618;2023-08-21T07:51:03;34.49;28.97
74416;SHT31;62850;42.428;25.618;2023-08-21T07:53:31;34.45;28.97
74416;SHT31;62850;42.428;25.618;2023-08-21T07:55:58;34.49;29.40
74416;SHT31;62850;42.428;25.618;2023-08-21T07:58:25;34.28;28.54
74416;SHT31;62850;42.428;25.618;2023-08-21T08:00:52;34.48;28.25
74416;SHT31;62850;42.428;25.618;2023-08-21T08:03:19;34.35;28.39
74416;SHT31;62850;42.428;25.618;2023-08-21T08:05:47;34.58;28.16
74416;SHT31;62850;42.428;25.618;2023-08-21T08:08:17;34.83;27.31
74416;SHT31;62850;42.428;25.618;2023-08-21T08:10:44;35.04;26.50
74416;SHT31;62850;42.428;25.618;2023-08-21T08:13:11;34.96;26.55
74416;SHT31;62850;42.428;25.618;2023-08-21T08:15:39;35.06;27.04
74416;SHT31;62850;42.428;25.618;2023-08-21T08:18:06;34.93;27.09
74416;SHT31;62850;42.428;25.618;2023-08-21T08:20:37;35.20;26.74
74416;SHT31;62850;42.428;25.618;2023-08-21T08:23:04;35.16;26.16
74416;SHT31;62850;42.428;25.618;2023-08-21T08:25:32;35.20;26.24
74416;SHT31;62850;42.428;25.618;2023-08-21T08:28:00;35.17;25.98
74416;SHT31;62850;42.428;25.618;2023-08-21T08:30:29;35.22;26.49
74416;SHT31;62850;42.428;25.618;2023-08-21T08:32:56;35.36;26.09
74416;SHT31;62850;42.428;25.618;2023-08-21T08:35:23;35.39;26.26
74416;SHT31;62850;42.428;25.618;2023-08-21T08:37:50;35.37;26.19
74416;SHT31;62850;42.428;25.618;2023-08-21T08:40:18;35.80;25.79
74416;SHT31;62850;42.428;25.618;2023-08-21T08:42:45;36.08;25.48
74416;SHT31;62850;42.428;25.618;2023-08-21T08:45:13;36.26;24.36
74416;SHT31;62850;42.428;25.618;2023-08-21T08:47:42;36.57;24.32
74416;SHT31;62850;42.428;25.618;2023-08-21T08:50:09;36.63;24.67
74416;SHT31;62850;42.428;25.618;2023-08-21T08:52:39;36.76;25.24
74416;SHT31;62850;42.428;25.618;2023-08-21T08:55:06;36.49;25.35
74416;SHT31;62850;42.428;25.618;2023-08-21T08:57:33;36.26;25.35
74416;SHT31;62850;42.428;25.618;2023-08-21T09:00:01;36.39;25.87
74416;SHT31;62850;42.428;25.618;2023-08-21T09:02:28;36.79;25.44
74416;SHT31;62850;42.428;25.618;2023-08-21T09:04:54;37.17;24.43
74416;SHT31;62850;42.428;25.618;2023-08-21T09:07:21;37.28;23.16
74416;SHT31;62850;42.428;25.618;2023-08-21T09:09:49;37.33;23.13
74416;SHT31;62850;42.428;25.618;2023-08-21T09:12:26;37.21;21.81
74416;SHT31;62850;42.428;25.618;2023-08-21T09:14:53;37.16;21.15
74416;SHT31;62850;42.428;25.618;2023-08-21T09:17:20;37.23;21.99
74416;SHT31;62850;42.428;25.618;2023-08-21T09:19:48;37.34;22.59
74416;SHT31;62850;42.428;25.618;2023-08-21T09:22:18;36.84;22.18
74416;SHT31;62850;42.428;25.618;2023-08-21T09:25:04;36.46;21.70
74416;SHT31;62850;42.428;25.618;2023-08-21T09:27:38;36.79;20.98
74416;SHT31;62850;42.428;25.618;2023-08-21T09:30:06;37.07;20.82
74416;SHT31;62850;42.428;25.618;2023-08-21T09:35:22;36.57;21.81
74416;SHT31;62850;42.428;25.618;2023-08-21T09:37:49;36.49;22.02
74416;SHT31;62850;42.428;25.618;2023-08-21T09:40:21;36.62;22.40
74416;SHT31;62850;42.428;25.618;2023-08-21T09:42:57;37.06;22.52
74416;SHT31;62850;42.428;25.618;2023-08-21T09:45:27;37.34;22.15
74416;SHT31;62850;42.428;25.618;2023-08-21T09:47:56;37.46;22.14
74416;SHT31;62850;42.428;25.618;2023-08-21T09:50:25;37.39;22.29
74416;SHT31;62850;42.428;25.618;2023-08-21T09:52:52;36.26;22.56
74416;SHT31;62850;42.428;25.618;2023-08-21T09:55:20;36.48;22.68
74416;SHT31;62850;42.428;25.618;2023-08-21T09:57:49;36.96;22.42
74416;SHT31;62850;42.428;25.618;2023-08-21T10:00:33;37.17;22.32
74416;SHT31;62850;42.428;25.618;2023-08-21T10:03:06;37.13;22.54
74416;SHT31;62850;42.428;25.618;2023-08-21T10:05:34;36.90;21.98
74416;SHT31;62850;42.428;25.618;2023-08-21T10:08:04;36.62;22.34
74416;SHT31;62850;42.428;25.618;2023-08-21T10:10:36;36.67;22.00
74416;SHT31;62850;42.428;25.618;2023-08-21T10:13:04;36.66;22.55
74416;SHT31;62850;42.428;25.618;2023-08-21T10:15:34;36.12;22.78
74416;SHT31;62850;42.428;25.618;2023-08-21T10:18:25;36.05;23.15
74416;SHT31;62850;42.428;25.618;2023-08-21T10:20:56;36.19;22.50
74416;SHT31;62850;42.428;25.618;2023-08-21T10:23:28;36.57;22.18
74416;SHT31;62850;42.428;25.618;2023-08-21T10:25:59;36.38;22.47
74416;SHT31;62850;42.428;25.618;2023-08-21T10:28:58;36.86;22.89
74416;SHT31;62850;42.428;25.618;2023-08-21T10:31:28;36.93;22.80
74416;SHT31;62850;42.428;25.618;2023-08-21T10:33:56;36.87;23.29
74416;SHT31;62850;42.428;25.618;2023-08-21T10:36:39;36.66;23.54
74416;SHT31;62850;42.428;25.618;2023-08-21T10:39:16;36.35;23.86
74416;SHT31;62850;42.428;25.618;2023-08-21T10:41:56;36.26;23.90
74416;SHT31;62850;42.428;25.618;2023-08-21T10:47:32;35.98;23.07
74416;SHT31;62850;42.428;25.618;2023-08-21T10:50:08;36.32;22.58
74416;SHT31;62850;42.428;25.618;2023-08-21T10:52:37;36.63;22.60
74416;SHT31;62850;42.428;25.618;2023-08-21T10:55:04;37.10;22.38
74416;SHT31;62850;42.428;25.618;2023-08-21T10:57:33;37.27;23.16
74416;SHT31;62850;42.428;25.618;2023-08-21T11:00:11;37.03;23.84
74416;SHT31;62850;42.428;25.618;2023-08-21T11:02:40;36.57;23.35
74416;SHT31;62850;42.428;25.618;2023-08-21T11:05:08;36.36;23.00
74416;SHT31;62850;42.428;25.618;2023-08-21T11:07:42;35.88;23.70
74416;SHT31;62850;42.428;25.618;2023-08-21T11:10:22;35.91;24.38
74416;SHT31;62850;42.428;25.618;2023-08-21T11:12:56;36.17;24.56
74416;SHT31;62850;42.428;25.618;2023-08-21T11:15:29;36.42;24.45
74416;SHT31;62850;42.428;25.618;2023-08-21T11:18:00;36.08;24.85
74416;SHT31;62850;42.428;25.618;2023-08-21T11:20:32;36.25;24.55
74416;SHT31;62850;42.428;25.618;2023-08-21T11:23:01;36.62;23.87
74416;SHT31;62850;42.428;25.618;2023-08-21T11:25:38;36.46;22.56
74416;SHT31;62850;42.428;25.618;2023-08-21T11:28:05;36.04;22.70
74416;SHT31;62850;42.428;25.618;2023-08-21T11:30:32;36.09;22.75
74416;SHT31;62850;42.428;25.618;2023-08-21T11:33:09;36.55;22.76
74416;SHT31;62850;42.428;25.618;2023-08-21T11:35:37;36.38;22.98
74416;SHT31;62850;42.428;25.618;2023-08-21T11:38:04;36.01;24.20
74416;SHT31;62850;42.428;25.618;2023-08-21T11:40:37;35.81;23.47
74416;SHT31;62850;42.428;25.618;2023-08-21T11:43:04;36.11;22.74
74416;SHT31;62850;42.428;25.618;2023-08-21T11:45:35;36.15;22.63
74416;SHT31;62850;42.428;25.618;2023-08-21T11:48:02;36.69;22.34
74416;SHT31;62850;42.428;25.618;2023-08-21T11:50:30;37.00;22.04
74416;SHT31;62850;42.428;25.618;2023-08-21T11:52:58;37.18;21.62
74416;SHT31;62850;42.428;25.618;2023-08-21T11:55:25;36.93;21.62
74416;SHT31;62850;42.428;25.618;2023-08-21T11:57:53;37.03;21.71
74416;SHT31;62850;42.428;25.618;2023-08-21T12:00:26;37.28;21.54
74416;SHT31;62850;42.428;25.618;2023-08-21T12:03:00;37.33;21.58
74416;SHT31;62850;42.428;25.618;2023-08-21T12:05:29;37.39;21.46
74416;SHT31;62850;42.428;25.618;2023-08-21T12:07:56;37.62;21.29
74416;SHT31;62850;42.428;25.618;2023-08-21T12:10:27;37.53;21.02
74416;SHT31;62850;42.428;25.618;2023-08-21T12:12:55;37.38;20.52
74416;SHT31;62850;42.428;25.618;2023-08-21T12:15:22;37.37;20.63
74416;SHT31;62850;42.428;25.618;2023-08-21T12:17:49;37.46;20.68
74416;SHT31;62850;42.428;25.618;2023-08-21T12:20:18;37.71;20.69
74416;SHT31;62850;42.428;25.618;2023-08-21T12:22:54;37.64;20.84
74416;SHT31;62850;42.428;25.618;2023-08-21T12:25:21;37.49;21.23
74416;SHT31;62850;42.428;25.618;2023-08-21T12:27:48;37.69;21.23
74416;SHT31;62850;42.428;25.618;2023-08-21T12:30:15;37.48;21.31
74416;SHT31;62850;42.428;25.618;2023-08-21T12:32:42;37.72;21.17
74416;SHT31;62850;42.428;25.618;2023-08-21T12:35:09;37.88;20.65
74416;SHT31;62850;42.428;25.618;2023-08-21T12:37:38;37.64;20.05
74416;SHT31;62850;42.428;25.618;2023-08-21T12:40:05;37.57;20.39
74416;SHT31;62850;42.428;25.618;2023-08-21T12:42:32;37.89;20.70
74416;SHT31;62850;42.428;25.618;2023-08-21T12:44:59;38.13;20.45
74416;SHT31;62850;42.428;25.618;2023-08-21T12:47:26;37.88;20.39
74416;SHT31;62850;42.428;25.618;2023-08-21T12:49:53;37.89;20.22
74416;SHT31;62850;42.428;25.618;2023-08-21T12:52:20;37.76;20.57
74416;SHT31;62850;42.428;25.618;2023-08-21T12:54:47;37.78;20.40
74416;SHT31;62850;42.428;25.618;2023-08-21T12:57:17;37.92;20.67
74416;SHT31;62850;42.428;25.618;2023-08-21T12:59:49;37.86;20.63
74416;SHT31;62850;42.428;25.618;2023-08-21T13:02:17;38.13;20.62
74416;SHT31;62850;42.428;25.618;2023-08-21T13:04:46;37.74;20.72
74416;SHT31;62850;42.428;25.618;2023-08-21T13:07:14;37.61;20.39
74416;SHT31;62850;42.428;25.618;2023-08-21T13:09:41;37.54;20.40
74416;SHT31;62850;42.428;25.618;2023-08-21T13:12:07;37.54;20.40
74416;SHT31;62850;42.428;25.618;2023-08-21T13:14:35;37.79;20.38
74416;SHT31;62850;42.428;25.618;2023-08-21T13:17:04;37.72;20.31
74416;SHT31;62850;42.428;25.618;2023-08-21T13:19:32;37.85;20.54
74416;SHT31;62850;42.428;25.618;2023-08-21T13:21:58;38.06;20.21
74416;SHT31;62850;42.428;25.618;2023-08-21T13:24:25;38.30;20.38
74416;SHT31;62850;42.428;25.618;2023-08-21T13:26:54;38.11;20.08
74416;SHT31;62850;42.428;25.618;2023-08-21T13:29:22;38.32;20.33
74416;SHT31;62850;42.428;25.618;2023-08-21T13:31:50;38.19;20.99
74416;SHT31;62850;42.428;25.618;2023-08-21T13:34:17;37.98;21.38
74416;SHT31;62850;42.428;25.618;2023-08-21T13:36:44;38.23;20.92
74416;SHT31;62850;42.428;25.618;2023-08-21T13:39:11;38.01;21.14
74416;SHT31;62850;42.428;25.618;2023-08-21T13:41:39;38.09;21.94
74416;SHT31;62850;42.428;25.618;2023-08-21T13:44:05;38.27;21.58
74416;SHT31;62850;42.428;25.618;2023-08-21T13:46:33;38.23;21.74
74416;SHT31;62850;42.428;25.618;2023-08-21T13:49:00;38.26;21.20
74416;SHT31;62850;42.428;25.618;2023-08-21T13:51:28;38.33;21.40
74416;SHT31;62850;42.428;25.618;2023-08-21T13:53:54;38.11;21.26
74416;SHT31;62850;42.428;25.618;2023-08-21T13:56:21;38.03;21.49
74416;SHT31;62850;42.428;25.618;2023-08-21T13:58:49;37.95;21.96
74416;SHT31;62850;42.428;25.618;2023-08-21T14:01:17;38.01;21.84
74416;SHT31;62850;42.428;25.618;2023-08-21T14:03:45;38.03;21.51
74416;SHT31;62850;42.428;25.618;2023-08-21T14:06:11;38.01;21.49
74416;SHT31;62850;42.428;25.618;2023-08-21T14:08:38;37.75;21.68
74416;SHT31;62850;42.428;25.618;2023-08-21T14:11:04;37.76;21.85
74416;SHT31;62850;42.428;25.618;2023-08-21T14:13:32;37.95;22.15
74416;SHT31;62850;42.428;25.618;2023-08-21T14:15:59;38.11;22.58
74416;SHT31;62850;42.428;25.618;2023-08-21T14:18:27;37.85;21.39
74416;SHT31;62850;42.428;25.618;2023-08-21T14:20:55;37.72;21.45
74416;SHT31;62850;42.428;25.618;2023-08-21T14:23:22;37.76;21.40
74416;SHT31;62850;42.428;25.618;2023-08-21T14:25:49;37.66;21.67
74416;SHT31;62850;42.428;25.618;2023-08-21T14:28:18;37.51;21.63
74416;SHT31;62850;42.428;25.618;2023-08-21T14:30:52;37.46;21.80
74416;SHT31;62850;42.428;25.618;2023-08-21T14:33:21;37.45;21.69
74416;SHT31;62850;42.428;25.618;2023-08-21T14:35:48;37.57;21.93
74416;SHT31;62850;42.428;25.618;2023-08-21T14:38:22;37.66;21.70
74416;SHT31;62850;42.428;25.618;2023-08-21T14:40:51;37.25;21.85
74416;SHT31;62850;42.428;25.618;2023-08-21T14:43:20;37.30;22.24
74416;SHT31;62850;42.428;25.618;2023-08-21T14:45:47;37.23;22.85
74416;SHT31;62850;42.428;25.618;2023-08-21T14:48:14;37.23;22.54
74416;SHT31;62850;42.428;25.618;2023-08-21T14:50:41;37.23;22.71
74416;SHT31;62850;42.428;25.618;2023-08-21T14:53:08;37.33;22.64
74416;SHT31;62850;42.428;25.618;2023-08-21T14:55:36;37.16;23.13
74416;SHT31;62850;42.428;25.618;2023-08-21T14:58:03;36.77;23.13
74416;SHT31;62850;42.428;25.618;2023-08-21T15:00:33;36.84;23.18
74416;SHT31;62850;42.428;25.618;2023-08-21T15:02:59;36.73;23.62
74416;SHT31;62850;42.428;25.618;2023-08-21T15:05:27;36.80;23.62
74416;SHT31;62850;42.428;25.618;2023-08-21T15:07:54;36.75;23.69
74416;SHT31;62850;42.428;25.618;2023-08-21T15:10:21;36.79;24.58
74416;SHT31;62850;42.428;25.618;2023-08-21T15:12:49;36.66;24.47
74416;SHT31;62850;42.428;25.618;2023-08-21T15:15:17;36.46;24.30
74416;SHT31;62850;42.428;25.618;2023-08-21T15:17:46;36.55;24.34
74416;SHT31;62850;42.428;25.618;2023-08-21T15:20:13;36.32;24.42
74416;SHT31;62850;42.428;25.618;2023-08-21T15:22:43;36.22;24.76
74416;SHT31;62850;42.428;25.618;2023-08-21T15:25:10;36.36;24.83
74416;SHT31;62850;42.428;25.618;2023-08-21T15:27:38;36.24;24.97
74416;SHT31;62850;42.428;25.618;2023-08-21T15:30:07;36.01;25.61
74416;SHT31;62850;42.428;25.618;2023-08-21T15:32:34;36.01;25.64